Redbud, Illinois
Current Conditions -  °F | °C
As of 11:15 AM on Sunday 21 Dec 2014 (Local Time) from KSAR Reporting Station
Overcast Overcast  
Wind Chill: 35°   Ceiling: 2500
Heat Index: 39°   Visibility: 10mi
Dew Point: 31°   Wind: 6mph
Humidity: 73%   Direction: 140°SE
Pressure: 30.2"   Gusts: NA
Location:  38.1575°N, 89.9813°W
Report Text: KSAR 211715Z AUTO 14005KT 10SM OVC025 04/00 A3020 RMK AO2 T00411003
Loading
Personal Weather Stations






























Interactive Weather Map New forecast layout! Learn more

10-Day Weather Forecast

Advertisements
Track Severe Weather on mobile